Council, ID (83612)

4:54 PM MDT on March 27, 2017 (GMT -0600)
MWEFI1 | | Change Station
Active Advisory: Flood Warning

Elev 3801 ft 44.85 °N, 116.43 °W | Updated 39 minutes ago

Partly Cloudy
Partly Cloudy
47.0 °F
Feels Like 45 °F
N
4.0
Wind Variable Wind from South
Gusts 22.0 mph

Today
High -- | Low -- °F
--% Chance of Precip.
Yesterday
High -- | Low -- °F
Precip. -- in
Pressure 30.09 in
Visibility 10.0 miles
Clouds Mostly Cloudy 10000 ft
Windchill 45 °F
Dew Point 30.0 °F
Humidity 51%
Rainfall 0.09 in
Snow Depth Not available.
7:35 AM 8:07 PM
Waning Crescent, 0% visible
METAR KONO 272153Z AUTO 31017KT 10SM BKN100 13/01 A3007 RMK AO2 SLP187 T01330011
Pressure 30.09 in
Visibility 10.0 miles
Clouds Mostly Cloudy 10000 ft
Windchill 45 °F
Dew Point 30.0 °F
Humidity 51%
Rainfall 0.09 in
Snow Depth Not available.
7:35 AM 8:07 PM
Waning Crescent, 0% visible
METAR KONO 272153Z AUTO 31017KT 10SM BKN100 13/01 A3007 RMK AO2 SLP187 T01330011

Get Your Daily Forecast Email!

Thanks for signing up!

Be on the lookout for a verification email in your inbox.

You'll start receiving severe weather alerts in your inbox..

×

10-Day Weather Forecast

Almanac

Astronomy

Mar. 27, 2017 Rise Set
Actual Time
Civil Twilight
Nautical Twilight
Astronomical Twilight
Moon
Length of Visible Light
Length of Day
Tomorrow will be .
, % of the Moon is Illuminated

Today's Extremes

State Highs State Lows

Community

WunderPhotos

Upload Photos

1,962,540 photos uploaded!

WunderBlog® & News

Nearby

Air Quality

  Air Quality AQ Index Pollutant
Not available.

Snow Depth

Station Depth Elevation

Earthquake Activity

City Distance Mag. Time & Date
Minimum magnitude displayed is 2.5.

Earthquake Activity

City Distance Mag. Time & Date
Minimum magnitude displayed is 2.5.

Coastal Water Temperatures

Place Temperature

Stations

Nearby Weather Stations

Station Location Temp. Windchill Dew Point Humidity Wind Precip. Elev Updated Type
                   

Watches & Warnings

Flood Warning
Issued: 12:58 AM MDT Mar. 27, 2017 – National Weather Service

... The Flood Warning continues for
the Snake River near Weiser.
* Until Tuesday April 04... or until the warning is cancelled.
* At 12:00 am Monday the stage was 11.8 feet.
* Minor flooding is forecast.
* Flood stage is 12.0 feet.
* Forecast... rise above flood stage by late this afternoon and
continue to rise to near 12.9 feet by Friday evening. The river
will briefly fall below flood stage Tuesday night through
Thursday evening.
* Impact... at 12.0 feet... flooding of agricultural land near the
river is likely in Malheur County, Oregon and in Washington
County, Idaho. Mortimer Road in Weiser will be flooded.


Lat... Lon 4431 11703 4417 11686 4405 11688 4406 11705
      4427 11714